Time;durP1;ratioP1;P1;durP2;ratioP2;P2;SDS_P1;SDS_P2;PMS_P1;PMS_P2;Temp;Humidity;BMP_temperature;BMP_pressure;BME280_temperature;BME280_humidity;BME280_pressure;Samples;Min_cycle;Max_cycle;Signal;HPM_P1;HPM_P2
2021/08/15 00:02:11;;;;;;;11.78;5.65;;;;;;;19.49;59.54;100837.76;1736026;80;21074;-60
2021/08/15 00:04:38;;;;;;;9.90;6.35;;;;;;;19.54;59.84;100837.77;1748402;80;21111;-60
2021/08/15 00:07:06;;;;;;;9.80;6.33;;;;;;;19.61;59.72;100845.41;1747744;80;21008;-60
2021/08/15 00:09:33;;;;;;;13.58;7.00;;;;;;;19.64;59.56;100849.08;1750724;80;21050;-60
2021/08/15 00:11:59;;;;;;;12.45;7.37;;;;;;;19.61;59.54;100846.23;1751827;80;21455;-60
2021/08/15 00:14:26;;;;;;;12.25;6.95;;;;;;;19.59;59.71;100845.58;1749529;80;21019;-60
2021/08/15 00:16:52;;;;;;;10.93;6.67;;;;;;;19.58;59.92;100849.75;1729417;81;21078;-60
2021/08/15 00:19:19;;;;;;;10.25;6.03;;;;;;;19.56;60.04;100851.77;1750451;80;21038;-60
2021/08/15 00:21:45;;;;;;;10.08;5.72;;;;;;;19.52;59.97;100845.94;1719265;81;21190;-60
2021/08/15 00:24:11;;;;;;;11.10;6.22;;;;;;;19.51;60.16;100851.45;1747954;80;21087;-60
2021/08/15 00:26:38;;;;;;;12.78;6.75;;;;;;;19.46;60.01;100847.44;1734177;81;21015;-60
2021/08/15 00:29:04;;;;;;;10.55;6.15;;;;;;;19.43;60.39;100845.12;1744982;80;21585;-60
2021/08/15 00:31:33;;;;;;;9.63;6.67;;;;;;;19.41;60.53;100853.78;1749833;80;21055;-60
2021/08/15 00:33:59;;;;;;;12.78;6.47;;;;;;;19.39;60.47;100853.64;1745913;81;22578;-60
2021/08/15 00:36:26;;;;;;;9.58;5.42;;;;;;;19.33;60.43;100852.45;1744539;81;20996;-60
2021/08/15 00:38:52;;;;;;;10.40;5.78;;;;;;;19.29;60.50;100852.48;1749600;80;21054;-60
2021/08/15 00:41:18;;;;;;;9.53;5.67;;;;;;;19.23;60.46;100846.47;1728086;81;21126;-60
2021/08/15 00:43:45;;;;;;;10.30;5.42;;;;;;;19.23;60.35;100850.47;1748918;80;21086;-60
2021/08/15 00:46:13;;;;;;;11.05;6.22;;;;;;;19.26;60.30;100844.80;1749549;80;21103;-60
2021/08/15 00:48:39;;;;;;;13.15;5.40;;;;;;;19.31;60.79;100846.46;1749692;80;21122;-60
2021/08/15 00:51:06;;;;;;;14.43;6.10;;;;;;;19.35;62.18;100848.29;1747223;80;21487;-60
2021/08/15 00:53:38;;;;;;;13.75;6.37;;;;;;;19.37;62.71;100837.80;1731458;80;21106;-60
2021/08/15 00:56:06;;;;;;;9.75;5.55;;;;;;;19.39;63.04;100838.45;1737208;80;21096;-60
2021/08/15 00:58:36;;;;;;;9.65;4.72;;;;;;;19.38;62.42;100836.77;1745456;80;21620;-60
2021/08/15 01:01:11;;;;;;;9.55;5.58;;;;;;;19.36;61.71;100829.95;1740691;80;21259;-60
2021/08/15 01:03:38;;;;;;;7.25;4.62;;;;;;;19.34;61.37;100839.45;1742474;80;22323;-61
2021/08/15 01:06:05;;;;;;;9.83;5.33;;;;;;;19.31;61.15;100835.79;1752883;80;21026;-60
2021/08/15 01:08:32;;;;;;;11.38;5.92;;;;;;;19.27;61.03;100839.30;1751286;81;21064;-60
2021/08/15 01:11:05;;;;;;;12.60;5.90;;;;;;;19.25;60.99;100840.48;1744938;80;21785;-60
2021/08/15 01:13:33;;;;;;;9.15;5.42;;;;;;;19.20;60.54;100834.31;1742936;80;21078;-61
2021/08/15 01:16:08;;;;;;;14.13;6.33;;;;;;;19.15;60.46;100835.80;1744441;80;21063;-60
2021/08/15 01:18:37;;;;;;;10.65;5.62;;;;;;;19.09;60.68;100839.98;1748101;80;21149;-60
2021/08/15 01:21:08;;;;;;;9.48;5.90;;;;;;;19.02;61.03;100843.81;1748369;80;21055;-60
2021/08/15 01:23:35;;;;;;;9.60;5.72;;;;;;;19.04;61.28;100842.32;1718133;81;21059;-61
2021/08/15 01:26:04;;;;;;;9.90;6.17;;;;;;;19.09;61.08;100839.47;1747162;80;21074;-61
2021/08/15 01:28:30;;;;;;;10.30;6.25;;;;;;;19.14;61.09;100844.83;1747672;80;21602;-61
2021/08/15 01:30:57;;;;;;;10.95;6.10;;;;;;;19.16;61.16;100840.97;1726685;81;21079;-61
2021/08/15 01:33:34;;;;;;;8.75;5.67;;;;;;;19.16;61.25;100835.64;1747122;80;21523;-61
2021/08/15 01:36:03;;;;;;;9.45;6.10;;;;;;;19.15;61.12;100834.47;1736169;80;21503;-61
2021/08/15 01:38:35;;;;;;;11.78;6.95;;;;;;;19.14;61.31;100835.48;1746613;80;21019;-61
2021/08/15 01:41:03;;;;;;;11.25;6.33;;;;;;;19.10;61.45;100841.16;1741846;80;21110;-61
2021/08/15 01:43:30;;;;;;;9.85;5.70;;;;;;;19.06;61.69;100829.16;1735796;82;21585;-61
2021/08/15 01:45:58;;;;;;;10.10;6.40;;;;;;;19.04;62.02;100828.48;1744343;80;21506;-61
2021/08/15 01:48:24;;;;;;;10.88;6.33;;;;;;;19.00;61.95;100830.34;1746007;80;21062;-61
2021/08/15 01:50:51;;;;;;;10.82;6.45;;;;;;;18.97;61.97;100830.66;1745232;80;21000;-61
2021/08/15 01:53:20;;;;;;;10.75;6.83;;;;;;;18.97;62.11;100827.48;1742365;80;21051;-61
2021/08/15 01:55:48;;;;;;;14.73;6.75;;;;;;;19.04;61.93;100827.66;1725924;80;21097;-61
2021/08/15 01:58:15;;;;;;;11.40;6.53;;;;;;;19.06;61.43;100819.83;1718606;80;21109;-61
2021/08/15 02:00:43;;;;;;;13.55;6.58;;;;;;;19.10;60.95;100821.66;1744226;80;21078;-61
2021/08/15 02:03:10;;;;;;;12.07;6.15;;;;;;;19.09;60.96;100816.80;1745851;80;21057;-61
2021/08/15 02:05:39;;;;;;;10.23;6.58;;;;;;;19.10;60.92;100813.66;1744536;80;21537;-61
2021/08/15 02:08:06;;;;;;;9.60;6.37;;;;;;;19.09;60.81;100815.98;1745512;80;21138;-61
2021/08/15 02:10:34;;;;;;;12.58;6.17;;;;;;;19.08;60.66;100820.97;1742476;80;21149;-61
2021/08/15 02:13:02;;;;;;;11.57;6.35;;;;;;;19.07;60.52;100821.48;1721752;82;22045;-61
2021/08/15 02:15:30;;;;;;;10.93;6.80;;;;;;;19.01;60.08;100818.65;1738546;80;21066;-61
2021/08/15 02:18:00;;;;;;;10.93;6.50;;;;;;;18.90;60.10;100819.32;1744595;82;21000;-60
2021/08/15 02:20:30;;;;;;;11.25;6.22;;;;;;;18.83;60.26;100810.81;1748520;80;21004;-61
2021/08/15 02:22:58;;;;;;;11.53;6.87;;;;;;;18.76;60.99;100815.94;1741574;80;21506;-61
2021/08/15 02:25:25;;;;;;;12.47;7.45;;;;;;;18.73;61.23;100806.97;1719851;81;21047;-61
2021/08/15 02:27:52;;;;;;;12.68;6.42;;;;;;;18.71;61.28;100810.27;1718822;82;21008;-61
2021/08/15 02:30:21;;;;;;;12.18;6.40;;;;;;;18.71;61.08;100808.47;1715494;82;21062;-59
2021/08/15 02:32:48;;;;;;;11.38;7.08;;;;;;;18.74;61.13;100813.47;1744653;80;21024;-60
2021/08/15 02:35:16;;;;;;;10.63;6.62;;;;;;;18.73;61.40;100811.79;1726228;81;21051;-60
2021/08/15 02:37:45;;;;;;;12.93;6.22;;;;;;;18.70;61.69;100808.12;1753501;80;23287;-60
2021/08/15 02:40:14;;;;;;;13.03;6.78;;;;;;;18.68;61.75;100812.78;1752166;80;21051;-60
2021/08/15 02:42:42;;;;;;;10.93;6.60;;;;;;;18.65;61.70;100806.95;1753038;80;21518;-62
2021/08/15 02:45:12;;;;;;;9.50;6.47;;;;;;;18.65;62.00;100813.63;1751004;80;21035;-60
2021/08/15 02:47:38;;;;;;;11.73;8.08;;;;;;;18.63;61.98;100811.12;1728011;80;21039;-60
2021/08/15 02:50:06;;;;;;;9.35;6.25;;;;;;;18.63;62.08;100812.45;1734052;81;21071;-60
2021/08/15 02:52:32;;;;;;;10.05;6.22;;;;;;;18.61;62.19;100815.78;1747471;81;21046;-60
2021/08/15 02:55:01;;;;;;;12.95;7.35;;;;;;;18.63;62.30;100816.95;1746455;80;21098;-60
2021/08/15 02:57:27;;;;;;;12.07;7.20;;;;;;;18.69;62.18;100819.80;1751138;80;21504;-60
2021/08/15 02:59:54;;;;;;;11.93;7.28;;;;;;;18.71;61.97;100819.60;1749204;80;21011;-60
2021/08/15 03:02:21;;;;;;;11.68;7.40;;;;;;;18.73;61.94;100821.62;1730376;81;21067;-60
2021/08/15 03:04:48;;;;;;;13.90;8.15;;;;;;;18.73;62.17;100817.13;1743752;80;21137;-60
2021/08/15 03:07:17;;;;;;;10.72;7.37;;;;;;;18.73;62.44;100818.96;1747762;80;21074;-60
2021/08/15 03:09:44;;;;;;;10.95;7.60;;;;;;;18.73;62.50;100817.13;1747077;80;21102;-60
2021/08/15 03:12:12;;;;;;;11.73;7.03;;;;;;;18.73;62.25;100820.30;1754231;80;21039;-59
2021/08/15 03:14:41;;;;;;;11.18;6.33;;;;;;;18.72;62.25;100822.11;1737982;80;22493;-56
2021/08/15 03:17:07;;;;;;;10.68;6.70;;;;;;;18.70;62.34;100818.78;1748408;81;21156;-59
2021/08/15 03:19:36;;;;;;;10.18;7.28;;;;;;;18.67;62.24;100817.77;1747970;80;21609;-57
2021/08/15 03:22:05;;;;;;;12.45;6.78;;;;;;;18.64;62.39;100821.27;1744395;80;21000;-57
2021/08/15 03:24:33;;;;;;;10.98;6.67;;;;;;;18.62;62.64;100818.77;1752012;80;21506;-57
2021/08/15 03:27:00;;;;;;;11.10;5.80;;;;;;;18.70;62.55;100817.95;1746731;80;21947;-58
2021/08/15 03:29:27;;;;;;;10.10;6.78;;;;;;;18.74;62.44;100819.28;1727517;80;21054;-57
2021/08/15 03:31:53;;;;;;;10.53;6.83;;;;;;;18.77;62.55;100822.12;1720103;80;21576;-57
2021/08/15 03:34:19;;;;;;;11.57;6.35;;;;;;;18.72;62.53;100815.44;1737990;80;21020;-58
2021/08/15 03:36:48;;;;;;;10.18;6.00;;;;;;;18.69;62.87;100817.61;1739118;80;21047;-58
2021/08/15 03:39:15;;;;;;;10.95;6.53;;;;;;;18.66;62.89;100813.94;1722269;82;21156;-57
2021/08/15 03:41:43;;;;;;;10.88;6.87;;;;;;;18.62;63.01;100822.77;1733638;80;20984;-59
2021/08/15 03:45:24;;;;;;;12.68;6.53;;;;;;;18.62;63.05;100812.61;1791640;77;22744;-58
2021/08/15 03:47:51;;;;;;;11.85;6.67;;;;;;;18.55;62.38;100816.44;1770961;78;20966;-58
2021/08/15 03:50:18;;;;;;;11.10;7.40;;;;;;;18.54;62.24;100818.75;1747527;80;21910;-57
2021/08/15 03:52:44;;;;;;;11.55;7.15;;;;;;;18.51;61.69;100823.11;1749752;80;21005;-56
2021/08/15 03:55:13;;;;;;;11.83;7.03;;;;;;;18.47;61.46;100817.24;1783712;78;21022;-56
2021/08/15 03:57:40;;;;;;;10.35;6.85;;;;;;;18.44;61.38;100814.08;1761881;78;22177;-57
2021/08/15 04:00:10;;;;;;;12.82;7.30;;;;;;;18.45;61.13;100815.25;1741401;80;21093;-58
2021/08/15 04:02:36;;;;;;;12.03;7.40;;;;;;;18.50;60.52;100810.26;1771051;79;21047;-61
2021/08/15 04:05:04;;;;;;;12.13;8.18;;;;;;;18.56;60.54;100808.78;1775636;80;21659;-62
2021/08/15 04:07:32;;;;;;;12.90;7.10;;;;;;;18.59;60.26;100804.94;1771477;78;20998;-61
2021/08/15 04:10:00;;;;;;;11.65;7.53;;;;;;;18.64;60.03;100807.95;1774317;78;21650;-61
2021/08/15 04:12:26;;;;;;;11.55;7.65;;;;;;;18.65;59.38;100805.63;1772174;78;21117;-61
2021/08/15 04:14:54;;;;;;;9.58;6.87;;;;;;;18.68;59.25;100811.45;1720088;81;22491;-61
2021/08/15 04:17:20;;;;;;;10.70;7.00;;;;;;;18.71;59.41;100814.27;1715502;81;21098;-61
2021/08/15 04:19:47;;;;;;;9.75;5.85;;;;;;;18.72;59.11;100818.11;1704230;81;21714;-61
2021/08/15 04:22:13;;;;;;;10.72;6.22;;;;;;;18.74;59.18;100816.61;1722564;82;21008;-61
2021/08/15 04:24:40;;;;;;;10.48;6.58;;;;;;;18.77;59.63;100823.45;1717680;81;21568;-61
2021/08/15 04:27:06;;;;;;;11.60;6.95;;;;;;;18.79;60.05;100822.78;1725943;81;21043;-61
2021/08/15 04:29:39;;;;;;;12.55;7.37;;;;;;;18.83;60.29;100824.14;1722246;81;21125;-61
2021/08/15 04:32:03;;;;;;;11.00;6.42;;;;;;;18.92;60.44;100817.83;1736367;81;21007;-61
2021/08/15 04:34:31;;;;;;;11.30;6.37;;;;;;;19.05;60.24;100819.48;1741434;81;21692;-61
2021/08/15 04:36:57;;;;;;;10.28;6.15;;;;;;;19.19;59.80;100821.14;1716760;81;21094;-61
2021/08/15 04:39:25;;;;;;;13.18;6.87;;;;;;;19.28;59.33;100821.45;1707728;82;21082;-61
2021/08/15 04:41:53;;;;;;;12.73;7.53;;;;;;;19.35;58.34;100820.27;1713325;81;21074;-61
2021/08/15 04:44:20;;;;;;;10.82;7.58;;;;;;;19.42;58.22;100813.27;1720672;80;21080;-61
2021/08/15 04:46:49;;;;;;;11.00;6.58;;;;;;;19.47;58.12;100817.09;1676345;84;21371;-61
2021/08/15 04:49:15;;;;;;;10.75;7.05;;;;;;;19.55;58.05;100816.73;1716710;80;21089;-61
2021/08/15 04:51:42;;;;;;;10.72;6.83;;;;;;;19.61;58.02;100814.20;1726010;82;21150;-61
2021/08/15 04:54:08;;;;;;;12.78;5.87;;;;;;;19.67;57.73;100814.86;1708687;82;21126;-61
2021/08/15 04:56:35;;;;;;;10.38;6.12;;;;;;;19.76;57.75;100809.02;1728168;82;21138;-60
2021/08/15 04:59:02;;;;;;;15.15;6.97;;;;;;;19.81;57.07;100816.52;1720001;82;21150;-61
2021/08/15 05:01:29;;;;;;;10.80;6.83;;;;;;;19.84;57.31;100813.51;1724787;82;21134;-60
2021/08/15 05:03:56;;;;;;;11.63;6.90;;;;;;;19.88;57.26;100816.66;1721781;82;22667;-61
2021/08/15 05:06:22;;;;;;;9.53;6.20;;;;;;;19.90;57.10;100817.31;1700940;82;21047;-61
2021/08/15 05:08:49;;;;;;;11.85;6.97;;;;;;;19.93;56.93;100811.11;1729488;80;21114;-61
2021/08/15 05:11:17;;;;;;;16.25;6.55;;;;;;;19.98;57.00;100807.93;1727336;82;21050;-61
2021/08/15 05:13:45;;;;;;;11.40;6.03;;;;;;;20.02;56.80;100814.09;1701982;82;21085;-61
2021/08/15 05:16:11;;;;;;;9.58;5.78;;;;;;;20.08;56.92;100808.55;1728282;80;21875;-60
2021/08/15 05:18:39;;;;;;;11.93;6.12;;;;;;;20.13;57.02;100812.86;1727259;82;21160;-61
2021/08/15 05:21:06;;;;;;;11.12;6.05;;;;;;;20.19;56.81;100812.17;1703289;82;21478;-61
2021/08/15 05:23:32;;;;;;;10.05;6.10;;;;;;;20.25;56.86;100805.27;1725611;81;21156;-61
2021/08/15 05:26:00;;;;;;;12.98;5.80;;;;;;;20.37;56.54;100807.04;1724793;82;21000;-61
2021/08/15 05:28:28;;;;;;;13.72;7.33;;;;;;;20.51;56.59;100800.95;1732803;82;21134;-61
2021/08/15 05:30:54;;;;;;;12.40;6.35;;;;;;;20.64;56.25;100793.68;1706630;82;21079;-61
2021/08/15 05:33:21;;;;;;;9.88;6.42;;;;;;;20.78;55.60;100797.44;1724801;82;21548;-61
2021/08/15 05:35:48;;;;;;;9.93;5.75;;;;;;;20.87;55.73;100800.87;1723296;80;21075;-62
2021/08/15 05:38:14;;;;;;;9.15;6.20;;;;;;;20.95;55.63;100803.48;1701224;82;21117;-61
2021/08/15 05:40:41;;;;;;;9.58;6.12;;;;;;;21.01;54.92;100797.38;1704665;82;21207;-61
2021/08/15 05:43:08;;;;;;;10.53;6.17;;;;;;;21.09;54.70;100793.81;1721408;80;20967;-61
2021/08/15 05:45:34;;;;;;;9.70;6.53;;;;;;;21.18;54.38;100793.22;1717922;79;21076;-61
2021/08/15 05:48:03;;;;;;;10.95;6.05;;;;;;;21.24;54.13;100793.31;1733108;81;21103;-61
2021/08/15 05:50:30;;;;;;;13.95;6.50;;;;;;;21.34;53.96;100798.41;1752262;79;21084;-62
2021/08/15 05:52:56;;;;;;;11.18;6.45;;;;;;;21.42;54.07;100789.48;1753698;79;21090;-62
2021/08/15 05:55:23;;;;;;;13.43;6.78;;;;;;;21.50;54.14;100791.58;1731234;81;21042;-61
2021/08/15 05:57:50;;;;;;;9.25;5.70;;;;;;;21.60;53.73;100789.11;1759345;81;21537;-62
2021/08/15 06:00:17;;;;;;;10.88;5.87;;;;;;;21.69;53.57;100787.50;1753371;79;21134;-62
2021/08/15 06:02:45;;;;;;;10.48;6.45;;;;;;;21.79;53.50;100785.87;1753023;79;21067;-60
2021/08/15 06:05:12;;;;;;;14.65;6.65;;;;;;;21.88;53.53;100787.94;1751449;80;21892;-58
2021/08/15 06:07:41;;;;;;;13.25;6.28;;;;;;;21.97;53.29;100783.30;1750096;79;21528;-61
2021/08/15 06:10:09;;;;;;;10.93;6.40;;;;;;;22.05;52.83;100780.50;1756172;79;21032;-60
2021/08/15 06:12:36;;;;;;;9.83;6.22;;;;;;;22.14;52.71;100781.22;1751148;79;21163;-60
2021/08/15 06:15:07;;;;;;;9.38;5.83;;;;;;;22.22;53.35;100781.92;1748865;79;21382;-61
2021/08/15 06:17:33;;;;;;;10.68;6.65;;;;;;;22.34;53.36;100780.13;1728717;81;21089;-61
2021/08/15 06:20:01;;;;;;;11.30;6.40;;;;;;;22.43;53.03;100776.31;1754259;80;21048;-61
2021/08/15 06:22:30;;;;;;;10.50;6.62;;;;;;;22.51;53.14;100780.70;1751562;79;21568;-60
2021/08/15 06:24:56;;;;;;;10.30;6.35;;;;;;;22.60;52.67;100774.20;1729668;81;21066;-60
2021/08/15 06:27:22;;;;;;;9.63;6.28;;;;;;;22.69;52.32;100778.91;1750602;79;21560;-61
2021/08/15 06:29:49;;;;;;;10.65;5.97;;;;;;;22.78;52.04;100775.91;1746833;79;21073;-60
2021/08/15 06:32:15;;;;;;;12.50;6.45;;;;;;;22.88;50.97;100773.39;1717916;79;21593;-60
2021/08/15 06:34:42;;;;;;;8.65;5.17;;;;;;;22.97;51.26;100770.89;1750402;79;21133;-60
2021/08/15 06:37:09;;;;;;;11.08;5.92;;;;;;;23.06;52.23;100773.77;1755191;79;21074;-60
2021/08/15 06:39:37;;;;;;;10.05;5.80;;;;;;;23.14;52.06;100774.95;1757343;79;21117;-61
2021/08/15 06:42:04;;;;;;;10.23;5.70;;;;;;;23.22;51.42;100765.08;1753543;79;21040;-60
2021/08/15 06:44:30;;;;;;;8.58;5.47;;;;;;;23.30;52.30;100766.27;1719612;81;21110;-62
2021/08/15 06:46:58;;;;;;;8.93;5.67;;;;;;;23.39;51.63;100766.45;1734664;81;21002;-61
2021/08/15 06:49:24;;;;;;;9.73;6.60;;;;;;;23.47;51.70;100766.78;1739006;81;21157;-61
2021/08/15 06:51:51;;;;;;;10.08;5.75;;;;;;;23.56;52.90;100772.31;1742321;80;21027;-61
2021/08/15 06:54:17;;;;;;;9.30;5.45;;;;;;;23.69;52.35;100771.56;1709761;80;21171;-61
2021/08/15 06:56:45;;;;;;;8.95;5.65;;;;;;;23.84;51.89;100767.39;1735670;80;21036;-61
2021/08/15 06:59:13;;;;;;;9.88;5.75;;;;;;;23.95;51.78;100770.03;1732742;82;21181;-61
2021/08/15 07:01:40;;;;;;;9.40;6.00;;;;;;;24.07;51.78;100769.75;1740636;80;21058;-61
2021/08/15 07:04:08;;;;;;;9.00;6.08;;;;;;;24.16;51.96;100765.01;1737965;82;21085;-60
2021/08/15 07:06:35;;;;;;;10.72;5.97;;;;;;;24.27;51.82;100771.14;1738977;80;21078;-61
2021/08/15 07:09:02;;;;;;;11.10;5.40;;;;;;;24.39;51.30;100765.98;1735312;80;20994;-61
2021/08/15 07:11:29;;;;;;;7.78;4.97;;;;;;;24.50;50.67;100757.32;1738835;80;21118;-60
2021/08/15 07:13:55;;;;;;;10.18;6.00;;;;;;;24.57;49.77;100755.48;1740115;80;21082;-61
2021/08/15 07:16:23;;;;;;;9.28;5.45;;;;;;;24.66;50.00;100750.72;1738679;80;21059;-61
2021/08/15 07:18:50;;;;;;;9.63;5.50;;;;;;;24.75;51.14;100756.75;1713490;82;21110;-61
2021/08/15 07:21:18;;;;;;;9.85;5.37;;;;;;;24.84;50.86;100752.80;1705894;81;21632;-62
2021/08/15 07:23:45;;;;;;;8.78;5.53;;;;;;;24.90;50.36;100753.32;1740967;80;21611;-62
2021/08/15 07:26:11;;;;;;;7.97;5.50;;;;;;;24.98;50.53;100753.11;1736569;80;21069;-62
2021/08/15 07:28:39;;;;;;;10.40;5.87;;;;;;;25.06;50.94;100760.12;1736520;80;21617;-61
2021/08/15 07:31:06;;;;;;;10.23;6.35;;;;;;;25.11;51.08;100754.11;1735335;80;21655;-62
2021/08/15 07:33:32;;;;;;;12.23;6.60;;;;;;;25.18;51.92;100754.92;1714345;82;21083;-62
2021/08/15 07:35:59;;;;;;;8.73;5.20;;;;;;;25.22;51.82;100751.60;1741147;80;21454;-60
2021/08/15 07:38:25;;;;;;;8.65;5.28;;;;;;;25.27;51.69;100749.66;1734826;80;21122;-61
2021/08/15 07:40:52;;;;;;;7.95;4.83;;;;;;;25.32;50.57;100749.03;1738371;80;21124;-61
2021/08/15 07:43:18;;;;;;;10.30;5.45;;;;;;;25.37;50.04;100746.53;1742348;81;21125;-61
2021/08/15 07:45:45;;;;;;;8.78;6.10;;;;;;;25.39;49.53;100746.61;1753967;79;21106;-62
2021/08/15 07:48:11;;;;;;;10.10;5.87;;;;;;;25.43;50.12;100746.19;1763638;79;21568;-60
2021/08/15 07:50:41;;;;;;;8.85;5.58;;;;;;;25.45;50.04;100741.41;1763311;79;21062;-60
2021/08/15 07:53:22;;;;;;;10.70;6.00;;;;;;;25.47;50.13;100742.02;1765480;79;21601;-60
2021/08/15 07:55:50;;;;;;;9.85;4.85;;;;;;;25.47;49.97;100746.91;1769331;79;21279;-60
2021/08/15 07:58:16;;;;;;;8.33;5.25;;;;;;;25.50;49.41;100742.95;1742738;80;21562;-60
2021/08/15 08:00:44;;;;;;;10.70;5.80;;;;;;;25.54;49.71;100744.20;1747995;80;21007;-60
2021/08/15 08:03:12;;;;;;;8.58;5.08;;;;;;;25.62;48.98;100741.27;1767544;79;21074;-61
2021/08/15 08:05:42;;;;;;;9.45;4.65;;;;;;;25.73;47.54;100741.92;1765141;79;21070;-61
2021/08/15 08:08:08;;;;;;;8.13;4.78;;;;;;;25.84;48.42;100739.59;1766800;79;21544;-61
2021/08/15 08:10:35;;;;;;;9.68;4.30;;;;;;;25.93;47.28;100735.08;1704422;82;21064;-61
2021/08/15 08:13:02;;;;;;;7.65;4.70;;;;;;;26.03;46.96;100740.57;1731839;81;21109;-61
2021/08/15 08:15:29;;;;;;;8.58;4.37;;;;;;;26.13;46.90;100740.92;1727727;80;22547;-62
2021/08/15 08:17:55;;;;;;;8.70;4.47;;;;;;;26.20;46.07;100737.65;1699019;82;21142;-61
2021/08/15 08:20:22;;;;;;;7.37;3.85;;;;;;;26.24;42.96;100741.58;1686098;83;21044;-61
2021/08/15 08:22:48;;;;;;;6.28;3.72;;;;;;;26.33;41.93;100734.86;1697888;82;21086;-62
2021/08/15 08:25:16;;;;;;;6.22;3.70;;;;;;;26.41;42.01;100731.08;1704199;82;22433;-61
2021/08/15 08:27:44;;;;;;;7.90;4.12;;;;;;;26.52;41.89;100729.53;1736894;80;21141;-62
2021/08/15 08:30:11;;;;;;;7.35;3.80;;;;;;;26.62;41.02;100728.52;1712674;82;21110;-61
2021/08/15 08:32:38;;;;;;;10.08;3.83;;;;;;;26.70;40.40;100731.50;1705737;82;21533;-61
2021/08/15 08:35:06;;;;;;;7.78;4.08;;;;;;;26.78;40.60;100727.17;1709160;82;21047;-61
2021/08/15 08:37:33;;;;;;;8.40;4.00;;;;;;;26.86;41.11;100721.48;1696748;82;21098;-63
2021/08/15 08:40:00;;;;;;;6.20;3.60;;;;;;;26.96;40.52;100719.60;1711604;83;21007;-61
2021/08/15 08:42:29;;;;;;;8.33;4.28;;;;;;;27.05;40.17;100726.91;1710317;83;21705;-61
2021/08/15 08:45:00;;;;;;;8.55;4.35;;;;;;;27.10;39.49;100716.27;1706570;82;21090;-61
2021/08/15 08:47:25;;;;;;;7.50;3.62;;;;;;;27.15;39.57;100715.56;1741878;80;21489;-62
2021/08/15 08:49:52;;;;;;;8.68;3.67;;;;;;;27.17;39.57;100711.60;1739039;80;21109;-63
2021/08/15 08:52:18;;;;;;;9.55;3.58;;;;;;;27.23;39.74;100706.66;1735548;80;21554;-63
2021/08/15 08:54:46;;;;;;;9.08;3.70;;;;;;;27.30;39.67;100707.13;1730418;80;21073;-62
2021/08/15 08:57:14;;;;;;;7.33;3.58;;;;;;;27.37;39.44;100700.60;1767001;79;21151;-60
2021/08/15 08:59:41;;;;;;;7.92;3.40;;;;;;;27.43;39.64;100698.86;1741524;80;21086;-60
2021/08/15 09:02:07;;;;;;;6.55;3.37;;;;;;;27.49;38.67;100700.66;1742172;80;21058;-60
2021/08/15 09:04:33;;;;;;;6.33;3.20;;;;;;;27.53;38.69;100701.03;1771600;79;21113;-61
2021/08/15 09:07:12;;;;;;;5.60;3.15;;;;;;;27.53;38.58;100692.38;1769568;79;21071;-61
2021/08/15 09:09:51;;;;;;;6.60;3.42;;;;;;;27.56;39.20;100690.58;1768817;79;21104;-60
2021/08/15 09:12:19;;;;;;;5.75;2.92;;;;;;;27.61;38.48;100688.55;1732784;80;21054;-61
2021/08/15 09:14:46;;;;;;;6.65;2.95;;;;;;;27.66;38.30;100685.98;1739456;80;21592;-61
2021/08/15 09:17:15;;;;;;;6.90;3.45;;;;;;;27.72;38.74;100692.34;1764447;79;21512;-61
2021/08/15 09:19:50;;;;;;;5.55;3.02;;;;;;;27.80;38.18;100687.97;1760684;79;21066;-62
2021/08/15 09:22:26;;;;;;;7.78;3.77;;;;;;;27.85;38.41;100686.75;1719212;79;21051;-61
2021/08/15 09:25:11;;;;;;;6.78;3.60;;;;;;;27.91;37.53;100678.27;1769083;79;21056;-63
2021/08/15 09:27:52;;;;;;;6.20;3.40;;;;;;;27.95;37.54;100675.41;1770856;79;21011;-61
2021/08/15 09:30:30;;;;;;;6.40;3.47;;;;;;;28.01;36.87;100673.66;1758819;80;21069;-61
2021/08/15 09:33:10;;;;;;;6.47;3.17;;;;;;;28.04;37.13;100665.08;1767818;79;21086;-62
2021/08/15 09:35:40;;;;;;;6.87;3.67;;;;;;;28.09;36.89;100670.11;1765809;79;21137;-61
2021/08/15 09:38:16;;;;;;;7.40;3.42;;;;;;;28.12;36.43;100663.40;1744759;80;21121;-62
2021/08/15 09:40:52;;;;;;;5.95;3.02;;;;;;;28.14;36.87;100655.87;1771788;79;21050;-62
2021/08/15 09:43:25;;;;;;;7.00;3.27;;;;;;;28.21;37.28;100667.42;1770876;79;21092;-62
2021/08/15 09:45:55;;;;;;;7.62;3.85;;;;;;;28.29;36.38;100649.47;1765471;79;21114;-60
2021/08/15 09:48:36;;;;;;;8.33;3.87;;;;;;;28.39;36.29;100651.59;1736397;80;21310;-61
2021/08/15 09:51:08;;;;;;;7.40;3.50;;;;;;;28.43;35.31;100645.19;1755343;80;21063;-62
2021/08/15 09:53:45;;;;;;;7.60;3.35;;;;;;;28.43;35.43;100651.44;1721543;81;21083;-63
2021/08/15 09:56:12;;;;;;;7.30;3.87;;;;;;;28.46;35.33;100640.66;1752718;79;21169;-64
2021/08/15 09:58:39;;;;;;;7.12;3.70;;;;;;;28.51;35.35;100643.48;1683755;83;21149;-62
2021/08/15 10:01:09;;;;;;;8.33;3.30;;;;;;;28.58;36.11;100637.47;1753711;79;21965;-62
2021/08/15 10:03:37;;;;;;;6.10;3.92;;;;;;;28.68;35.82;100645.81;1759657;79;21614;-62
2021/08/15 10:06:04;;;;;;;8.58;4.37;;;;;;;28.74;35.32;100648.63;1759225;79;22052;-63
2021/08/15 10:08:31;;;;;;;6.92;3.50;;;;;;;28.76;34.79;100637.03;1754734;79;21086;-63
2021/08/15 10:10:59;;;;;;;6.20;3.67;;;;;;;28.83;35.25;100629.59;1764006;80;21118;-64
2021/08/15 10:13:25;;;;;;;7.03;3.65;;;;;;;28.91;35.43;100629.23;1706187;82;21211;-65
2021/08/15 10:16:02;;;;;;;7.80;3.90;;;;;;;28.91;35.55;100632.75;1698688;82;21072;-64
2021/08/15 10:18:30;;;;;;;7.20;3.30;;;;;;;28.93;34.60;100618.97;1691456;82;21111;-65
2021/08/15 10:21:11;;;;;;;6.28;3.25;;;;;;;28.90;33.96;100623.00;1764301;80;21058;-63
2021/08/15 10:23:41;;;;;;;5.70;3.17;;;;;;;28.88;33.84;100614.80;1744532;80;21058;-62
2021/08/15 10:26:39;;;;;;;6.28;3.35;;;;;;;28.85;34.09;100606.64;1755714;80;21107;-63
2021/08/15 10:29:34;;;;;;;7.17;3.70;;;;;;;28.93;34.48;100614.09;1766467;80;21087;-63
2021/08/15 10:32:20;;;;;;;8.05;3.30;;;;;;;29.01;34.51;100600.99;1758947;79;21157;-62
2021/08/15 10:34:57;;;;;;;7.60;3.55;;;;;;;29.08;34.10;100602.21;1748390;79;21125;-63
2021/08/15 10:37:29;;;;;;;5.58;3.42;;;;;;;29.14;34.53;100595.84;1768888;79;21055;-63
2021/08/15 10:40:02;;;;;;;7.53;3.65;;;;;;;29.22;34.63;100598.20;1739517;79;21269;-62
2021/08/15 10:42:46;;;;;;;6.75;3.95;;;;;;;29.32;34.77;100586.73;1747653;79;21117;-63
2021/08/15 10:45:22;;;;;;;5.72;3.00;;;;;;;29.38;34.08;100584.94;1761430;79;21055;-63
2021/08/15 10:48:12;;;;;;;7.17;3.35;;;;;;;29.41;33.71;100589.33;1761340;79;21467;-62
2021/08/15 10:50:56;;;;;;;6.40;3.67;;;;;;;29.46;34.00;100571.80;1756703;79;21525;-62
2021/08/15 10:53:36;;;;;;;5.83;3.05;;;;;;;29.55;33.90;100576.83;1756969;79;21135;-62
2021/08/15 10:56:07;;;;;;;7.30;3.40;;;;;;;29.62;34.04;100568.00;1746520;80;21623;-63
2021/08/15 10:58:45;;;;;;;6.90;3.67;;;;;;;29.70;33.71;100583.05;1754927;80;21086;-62
2021/08/15 11:01:17;;;;;;;6.37;3.33;;;;;;;29.74;33.58;100576.06;1760003;79;21529;-63
2021/08/15 11:03:51;;;;;;;6.87;3.60;;;;;;;29.78;33.06;100567.22;1756429;80;21059;-63
2021/08/15 11:06:36;;;;;;;7.80;3.42;;;;;;;29.84;32.90;100564.05;1748660;79;21055;-62
2021/08/15 11:09:05;;;;;;;7.00;3.87;;;;;;;29.89;33.09;100559.25;1745855;80;21038;-61
2021/08/15 11:11:36;;;;;;;6.37;3.55;;;;;;;29.97;33.60;100569.69;1758066;80;21050;-62
2021/08/15 11:14:25;;;;;;;5.58;3.25;;;;;;;30.04;33.08;100558.13;1762330;79;21106;-61
2021/08/15 11:16:57;;;;;;;6.70;3.58;;;;;;;30.08;32.61;100570.14;1750349;80;21102;-61
2021/08/15 11:19:26;;;;;;;7.53;3.65;;;;;;;30.09;32.46;100559.55;1734790;80;21404;-61
2021/08/15 11:22:16;;;;;;;6.50;3.80;;;;;;;30.13;32.25;100549.86;1754043;79;21157;-62
2021/08/15 11:24:49;;;;;;;6.05;3.55;;;;;;;30.18;32.49;100547.77;1759315;79;21797;-61
2021/08/15 11:27:28;;;;;;;8.65;3.35;;;;;;;30.27;32.47;100551.68;1750400;80;21477;-60
2021/08/15 11:29:55;;;;;;;6.28;3.27;;;;;;;30.38;33.34;100545.91;1758545;79;21443;-61
2021/08/15 11:32:30;;;;;;;7.47;4.17;;;;;;;30.48;31.26;100547.40;1761079;79;21161;-61